Time;durP1;ratioP1;P1;durP2;ratioP2;P2;SDS_P1;SDS_P2;PMS_P1;PMS_P2;Temp;Humidity;BMP_temperature;BMP_pressure;BME280_temperature;BME280_humidity;BME280_pressure;Samples;Min_cycle;Max_cycle;Signal;HPM_P1;HPM_P2
2022/11/10 00:00:15;;;;;;;3.22;1.10;;;;;;;;;;5137395;27;20046;-75
2022/11/10 00:02:44;;;;;;;2.08;0.65;;;;;;;;;;5136796;27;20093;-75
2022/11/10 00:05:11;;;;;;;2.45;0.90;;;;;;;;;;5136930;27;20042;-75
2022/11/10 00:07:38;;;;;;;4.50;1.00;;;;;;;;;;5136697;27;20061;-75
2022/11/10 00:10:04;;;;;;;2.85;0.98;;;;;;;;;;5136934;27;20043;-75
2022/11/10 00:12:31;;;;;;;2.35;1.02;;;;;;;;;;5136340;27;20359;-75
2022/11/10 00:17:42;;;;;;;1.73;0.68;;;;;;;;;;5136257;27;20042;-75
2022/11/10 00:20:08;;;;;;;2.25;0.80;;;;;;;;;;5137015;27;20043;-75
2022/11/10 00:22:35;;;;;;;3.25;1.05;;;;;;;;;;5136624;27;20031;-75
2022/11/10 00:25:01;;;;;;;2.28;0.88;;;;;;;;;;5136450;27;20047;-75
2022/11/10 00:27:27;;;;;;;2.85;0.82;;;;;;;;;;5136584;27;20042;-75
2022/11/10 00:29:53;;;;;;;2.60;1.20;;;;;;;;;;5136892;27;20494;-75
2022/11/10 00:32:20;;;;;;;2.05;0.60;;;;;;;;;;5136776;27;20061;-75
2022/11/10 00:34:46;;;;;;;1.30;0.70;;;;;;;;;;5136241;27;20138;-75
2022/11/10 00:37:12;;;;;;;2.47;0.70;;;;;;;;;;5136699;27;20039;-75
2022/11/10 00:39:38;;;;;;;1.77;0.65;;;;;;;;;;5136929;27;20043;-75
2022/11/10 00:42:05;;;;;;;3.03;0.85;;;;;;;;;;5136329;27;20044;-75
2022/11/10 00:44:31;;;;;;;1.45;0.73;;;;;;;;;;5136282;27;20043;-75
2022/11/10 00:46:57;;;;;;;2.40;0.80;;;;;;;;;;5136757;27;20351;-75
2022/11/10 00:49:23;;;;;;;2.17;0.90;;;;;;;;;;5136170;27;20437;-75
2022/11/10 00:51:49;;;;;;;3.95;1.02;;;;;;;;;;5136081;27;20398;-75
2022/11/10 00:54:16;;;;;;;4.35;0.90;;;;;;;;;;5136530;27;20145;-75
2022/11/10 00:56:42;;;;;;;1.50;1.15;;;;;;;;;;5135859;27;20031;-75
2022/11/10 00:59:08;;;;;;;2.60;0.88;;;;;;;;;;5136314;27;20074;-75
2022/11/10 01:01:34;;;;;;;4.63;1.00;;;;;;;;;;5136237;27;20041;-75
2022/11/10 01:04:00;;;;;;;3.25;0.93;;;;;;;;;;5135947;27;20135;-75
2022/11/10 01:06:26;;;;;;;3.22;1.38;;;;;;;;;;5136472;27;20039;-75
2022/11/10 01:08:53;;;;;;;1.83;0.80;;;;;;;;;;5136500;27;20043;-75
2022/11/10 01:11:21;;;;;;;2.35;0.70;;;;;;;;;;5135949;27;20041;-75
2022/11/10 01:13:47;;;;;;;4.68;1.17;;;;;;;;;;5136063;27;20039;-75
2022/11/10 01:16:14;;;;;;;1.77;0.73;;;;;;;;;;5135658;27;20081;-75
2022/11/10 01:18:41;;;;;;;2.30;0.80;;;;;;;;;;5136345;27;20058;-75
2022/11/10 01:21:07;;;;;;;3.33;1.33;;;;;;;;;;5135987;27;20046;-75
2022/11/10 01:23:33;;;;;;;2.80;0.70;;;;;;;;;;5135935;27;20043;-75
2022/11/10 01:26:00;;;;;;;3.30;0.85;;;;;;;;;;5135811;27;20039;-75
2022/11/10 01:28:26;;;;;;;3.70;0.85;;;;;;;;;;5136131;27;20047;-75
2022/11/10 01:31:03;;;;;;;3.38;1.10;;;;;;;;;;5135653;27;20035;-75
2022/11/10 01:33:29;;;;;;;4.75;1.20;;;;;;;;;;5135550;27;20043;-75
2022/11/10 01:35:55;;;;;;;4.88;1.65;;;;;;;;;;5135297;28;20050;-75
2022/11/10 01:38:21;;;;;;;4.68;1.15;;;;;;;;;;5135784;28;20589;-75
2022/11/10 01:40:48;;;;;;;2.83;0.75;;;;;;;;;;5135438;28;20043;-75
2022/11/10 01:43:15;;;;;;;1.88;1.02;;;;;;;;;;5135702;27;20397;-75
2022/11/10 01:45:41;;;;;;;2.58;0.90;;;;;;;;;;5135442;28;20066;-75
2022/11/10 01:48:08;;;;;;;3.65;0.90;;;;;;;;;;5135460;28;20066;-75
2022/11/10 01:50:37;;;;;;;2.25;0.93;;;;;;;;;;5135422;28;20054;-75
2022/11/10 01:53:04;;;;;;;2.15;0.70;;;;;;;;;;5135068;28;20165;-75
2022/11/10 01:55:31;;;;;;;2.33;0.63;;;;;;;;;;5135230;27;20062;-75
2022/11/10 01:57:57;;;;;;;1.70;0.55;;;;;;;;;;5139266;27;20092;-75
2022/11/10 02:00:24;;;;;;;5.18;0.95;;;;;;;;;;5139637;27;20129;-75
2022/11/10 02:02:50;;;;;;;2.38;0.90;;;;;;;;;;5139434;27;20087;-75
2022/11/10 02:05:16;;;;;;;3.85;0.82;;;;;;;;;;5139379;27;20043;-75
2022/11/10 02:07:42;;;;;;;1.08;0.50;;;;;;;;;;5139325;27;20035;-75
2022/11/10 02:10:18;;;;;;;1.88;0.70;;;;;;;;;;5139435;27;20035;-76
2022/11/10 02:12:45;;;;;;;2.05;0.50;;;;;;;;;;5139174;27;20043;-75
2022/11/10 02:15:13;;;;;;;1.92;0.77;;;;;;;;;;5139059;27;20050;-75
2022/11/10 02:17:39;;;;;;;0.63;0.40;;;;;;;;;;5139140;27;20039;-75
2022/11/10 02:20:08;;;;;;;0.88;0.60;;;;;;;;;;5139288;27;20031;-75
2022/11/10 02:22:35;;;;;;;1.52;0.50;;;;;;;;;;5139432;27;20043;-75
2022/11/10 02:25:01;;;;;;;1.65;0.40;;;;;;;;;;5138646;27;20038;-75
2022/11/10 02:27:29;;;;;;;0.82;0.30;;;;;;;;;;5138938;27;20045;-75
2022/11/10 02:29:55;;;;;;;0.63;0.30;;;;;;;;;;5138273;27;20038;-75
2022/11/10 02:32:21;;;;;;;1.27;0.50;;;;;;;;;;5139133;27;20104;-75
2022/11/10 02:34:47;;;;;;;2.25;0.85;;;;;;;;;;5138843;27;20051;-75
2022/11/10 02:37:14;;;;;;;0.95;0.40;;;;;;;;;;5138784;27;20043;-76
2022/11/10 02:39:40;;;;;;;3.22;0.40;;;;;;;;;;5139207;27;20488;-75
2022/11/10 02:42:09;;;;;;;1.05;0.45;;;;;;;;;;5138964;27;20035;-75
2022/11/10 02:44:37;;;;;;;0.65;0.32;;;;;;;;;;5138626;27;20043;-75
2022/11/10 02:47:04;;;;;;;0.82;0.57;;;;;;;;;;5138831;27;20067;-75
2022/11/10 02:49:30;;;;;;;0.75;0.60;;;;;;;;;;5138867;27;20532;-75
2022/11/10 02:51:56;;;;;;;1.67;0.47;;;;;;;;;;5138763;27;20095;-75
2022/11/10 02:54:22;;;;;;;1.75;0.50;;;;;;;;;;5139093;27;20554;-75
2022/11/10 02:56:48;;;;;;;1.33;0.60;;;;;;;;;;5138236;27;20070;-75
2022/11/10 02:59:14;;;;;;;2.83;0.80;;;;;;;;;;5138624;27;20084;-75
2022/11/10 03:01:40;;;;;;;1.58;0.50;;;;;;;;;;5138293;27;20532;-75
2022/11/10 03:04:06;;;;;;;1.92;0.50;;;;;;;;;;5138233;27;20035;-75
2022/11/10 03:06:33;;;;;;;1.35;0.77;;;;;;;;;;5137415;27;20039;-75
2022/11/10 03:08:59;;;;;;;2.15;0.75;;;;;;;;;;5138734;27;20466;-75
2022/11/10 03:11:25;;;;;;;2.05;0.80;;;;;;;;;;5137642;27;20039;-75
2022/11/10 03:13:51;;;;;;;3.10;0.75;;;;;;;;;;5138047;27;20060;-75
2022/11/10 03:16:17;;;;;;;2.78;0.68;;;;;;;;;;5137649;27;20513;-75
2022/11/10 03:18:43;;;;;;;13.05;4.13;;;;;;;;;;5138174;27;20043;-75
2022/11/10 03:21:09;;;;;;;7.32;1.73;;;;;;;;;;5137917;27;20031;-75
2022/11/10 03:23:36;;;;;;;5.32;1.42;;;;;;;;;;5138417;27;20079;-75
2022/11/10 03:26:05;;;;;;;2.88;0.95;;;;;;;;;;5137658;27;20121;-75
2022/11/10 03:28:32;;;;;;;3.08;0.90;;;;;;;;;;5138156;27;20092;-75
2022/11/10 03:30:58;;;;;;;2.65;0.77;;;;;;;;;;5137757;27;20039;-75
2022/11/10 03:33:24;;;;;;;0.95;0.60;;;;;;;;;;5138242;27;20042;-75
2022/11/10 03:35:50;;;;;;;2.25;0.50;;;;;;;;;;5137887;27;20058;-75
2022/11/10 03:38:16;;;;;;;1.20;0.60;;;;;;;;;;5137647;27;20501;-75
2022/11/10 03:40:42;;;;;;;1.25;0.68;;;;;;;;;;5137856;27;20057;-75
2022/11/10 03:43:11;;;;;;;1.90;0.70;;;;;;;;;;5138068;27;20035;-75
2022/11/10 03:45:37;;;;;;;2.10;0.65;;;;;;;;;;5137738;27;20039;-75
2022/11/10 03:48:03;;;;;;;3.95;1.40;;;;;;;;;;5137695;27;20585;-75
2022/11/10 03:50:29;;;;;;;2.60;0.98;;;;;;;;;;5137881;27;20127;-75
2022/11/10 03:52:55;;;;;;;1.35;0.73;;;;;;;;;;5138151;27;20035;-75
2022/11/10 03:55:21;;;;;;;1.95;0.70;;;;;;;;;;5137393;27;20481;-75
2022/11/10 03:57:47;;;;;;;2.88;0.80;;;;;;;;;;5137775;27;20118;-75
2022/11/10 04:00:14;;;;;;;2.55;0.98;;;;;;;;;;5137714;27;20055;-75
2022/11/10 04:02:40;;;;;;;2.53;0.80;;;;;;;;;;5137719;27;20092;-75
2022/11/10 04:10:49;;;;;;;3.60;1.00;;;;;;;;;;5107129;27;20047;-75
2022/11/10 04:16:00;;;;;;;2.55;1.02;;;;;;;;;;5136522;27;20058;-75
2022/11/10 04:18:28;;;;;;;2.75;0.95;;;;;;;;;;5135945;27;20035;-75
2022/11/10 04:20:55;;;;;;;3.83;1.20;;;;;;;;;;5136750;27;20489;-75
2022/11/10 04:23:25;;;;;;;3.97;1.33;;;;;;;;;;5136678;27;20037;-75
2022/11/10 04:28:38;;;;;;;3.20;1.15;;;;;;;;;;5136864;27;20076;-75
2022/11/10 04:31:04;;;;;;;3.22;1.40;;;;;;;;;;5136928;27;20071;-75
2022/11/10 04:33:30;;;;;;;3.72;1.20;;;;;;;;;;5136947;27;20084;-75
2022/11/10 04:35:56;;;;;;;3.20;1.00;;;;;;;;;;5136493;27;20051;-75
2022/11/10 04:38:23;;;;;;;3.95;1.05;;;;;;;;;;5136712;27;20047;-75
2022/11/10 04:40:49;;;;;;;5.20;1.55;;;;;;;;;;5136369;27;20091;-75
2022/11/10 04:43:15;;;;;;;2.42;1.05;;;;;;;;;;5136559;27;20043;-75
2022/11/10 04:45:42;;;;;;;4.18;1.35;;;;;;;;;;5136254;27;20066;-75
2022/11/10 04:48:08;;;;;;;2.75;1.10;;;;;;;;;;5136527;27;20046;-75
2022/11/10 04:50:34;;;;;;;3.80;0.90;;;;;;;;;;5136681;27;20039;-75
2022/11/10 04:53:00;;;;;;;5.97;1.45;;;;;;;;;;5136459;27;20070;-75
2022/11/10 04:55:26;;;;;;;2.55;1.10;;;;;;;;;;5136143;27;20060;-75
2022/11/10 04:57:52;;;;;;;3.85;1.05;;;;;;;;;;5136364;27;20033;-75
2022/11/10 05:00:19;;;;;;;5.95;1.60;;;;;;;;;;5136933;27;20043;-76
2022/11/10 05:02:45;;;;;;;2.42;1.33;;;;;;;;;;5135993;27;20035;-75
2022/11/10 05:05:11;;;;;;;2.53;1.10;;;;;;;;;;5136004;27;20124;-76
2022/11/10 05:07:37;;;;;;;4.22;1.25;;;;;;;;;;5135811;27;20454;-75
2022/11/10 05:10:04;;;;;;;5.10;1.50;;;;;;;;;;5136040;27;20073;-75
2022/11/10 05:12:30;;;;;;;4.03;1.52;;;;;;;;;;5136183;27;20039;-75
2022/11/10 05:14:56;;;;;;;5.88;1.10;;;;;;;;;;5135979;27;20042;-75
2022/11/10 05:17:22;;;;;;;6.28;1.67;;;;;;;;;;5136286;27;20043;-75
2022/11/10 05:19:48;;;;;;;4.03;1.13;;;;;;;;;;5136186;27;20122;-75
2022/11/10 05:22:15;;;;;;;1.90;0.88;;;;;;;;;;5136557;27;20038;-75
2022/11/10 05:24:41;;;;;;;5.47;1.50;;;;;;;;;;5135822;27;20122;-75
2022/11/10 05:27:07;;;;;;;2.80;1.20;;;;;;;;;;5135968;27;20043;-75
2022/11/10 05:29:33;;;;;;;3.70;1.40;;;;;;;;;;5136048;27;20504;-75
2022/11/10 05:31:59;;;;;;;4.82;1.25;;;;;;;;;;5136197;27;20071;-75
2022/11/10 05:34:25;;;;;;;4.75;1.25;;;;;;;;;;5135511;27;20058;-76
2022/11/10 05:36:52;;;;;;;2.67;0.95;;;;;;;;;;5136411;28;20039;-76
2022/11/10 05:39:18;;;;;;;4.78;1.50;;;;;;;;;;5135465;28;20481;-76
2022/11/10 05:41:45;;;;;;;3.63;1.25;;;;;;;;;;5135640;28;20031;-75
2022/11/10 05:44:11;;;;;;;2.95;1.27;;;;;;;;;;5135713;28;20047;-76
2022/11/10 05:46:37;;;;;;;3.38;1.30;;;;;;;;;;5135439;28;20049;-76
2022/11/10 05:49:03;;;;;;;3.95;1.20;;;;;;;;;;5135556;28;20047;-75
2022/11/10 05:51:29;;;;;;;3.88;1.40;;;;;;;;;;5135293;28;20127;-75
2022/11/10 05:53:55;;;;;;;2.33;0.98;;;;;;;;;;5135577;28;20045;-75
2022/11/10 05:56:21;;;;;;;6.53;1.52;;;;;;;;;;5135150;28;20042;-76
2022/11/10 05:58:47;;;;;;;4.80;1.30;;;;;;;;;;5135487;28;20122;-76
2022/11/10 06:01:13;;;;;;;2.72;1.10;;;;;;;;;;5135477;28;20049;-76
2022/11/10 06:03:39;;;;;;;2.58;1.15;;;;;;;;;;5135493;28;20482;-76
2022/11/10 06:06:06;;;;;;;3.90;1.27;;;;;;;;;;5135208;28;20043;-75
2022/11/10 06:08:32;;;;;;;3.30;1.17;;;;;;;;;;5135572;28;20046;-75
2022/11/10 06:10:58;;;;;;;3.47;1.30;;;;;;;;;;5134997;28;20039;-75
2022/11/10 06:13:24;;;;;;;4.10;1.23;;;;;;;;;;5135929;28;20031;-75
2022/11/10 06:15:51;;;;;;;6.93;1.58;;;;;;;;;;5135100;28;20077;-76
2022/11/10 06:18:17;;;;;;;1.98;1.10;;;;;;;;;;5135982;28;20047;-76
2022/11/10 06:20:45;;;;;;;4.40;1.15;;;;;;;;;;5136020;28;20047;-75
2022/11/10 06:23:12;;;;;;;3.00;1.20;;;;;;;;;;5134413;28;20035;-75
2022/11/10 06:25:38;;;;;;;1.90;0.80;;;;;;;;;;5133721;28;20108;-75
2022/11/10 06:28:05;;;;;;;2.05;1.17;;;;;;;;;;5134610;28;20035;-75
2022/11/10 06:30:33;;;;;;;4.82;1.13;;;;;;;;;;5131916;28;20055;-74
2022/11/10 06:32:59;;;;;;;3.35;1.13;;;;;;;;;;5124056;28;20043;-75
2022/11/10 06:35:26;;;;;;;3.90;1.05;;;;;;;;;;5132831;28;20566;-75
2022/11/10 06:37:59;;;;;;;2.78;1.20;;;;;;;;;;5115224;28;20039;-75
2022/11/10 06:40:25;;;;;;;3.63;1.40;;;;;;;;;;5132351;28;20046;-74
2022/11/10 06:42:51;;;;;;;5.07;1.23;;;;;;;;;;5134323;27;20512;-74
2022/11/10 06:45:17;;;;;;;4.28;1.05;;;;;;;;;;5137183;27;20043;-74
2022/11/10 06:47:43;;;;;;;4.63;1.38;;;;;;;;;;5118029;28;20036;-74
2022/11/10 06:50:10;;;;;;;5.03;1.17;;;;;;;;;;5134550;27;20115;-74
2022/11/10 06:52:36;;;;;;;3.92;1.20;;;;;;;;;;5138364;27;20050;-74
2022/11/10 06:55:02;;;;;;;4.70;0.80;;;;;;;;;;5137619;27;20047;-74
2022/11/10 06:57:28;;;;;;;2.80;0.90;;;;;;;;;;5137465;27;20514;-74
2022/11/10 06:59:54;;;;;;;3.60;1.10;;;;;;;;;;5138274;27;20092;-74
2022/11/10 07:02:20;;;;;;;3.72;1.30;;;;;;;;;;5136999;27;20039;-77
2022/11/10 07:04:49;;;;;;;4.32;1.30;;;;;;;;;;5137080;27;20047;-76
2022/11/10 07:07:16;;;;;;;2.70;1.10;;;;;;;;;;5137454;27;20031;-75
2022/11/10 07:09:42;;;;;;;2.65;1.10;;;;;;;;;;5137381;27;20051;-75
2022/11/10 07:12:08;;;;;;;5.53;1.23;;;;;;;;;;5136183;27;20143;-75
2022/11/10 07:14:34;;;;;;;4.28;1.27;;;;;;;;;;5137066;27;20054;-75
2022/11/10 07:17:00;;;;;;;3.33;0.90;;;;;;;;;;5136612;27;20539;-74
2022/11/10 07:19:26;;;;;;;6.15;2.08;;;;;;;;;;5136631;27;20042;-75
2022/11/10 07:21:53;;;;;;;4.68;1.30;;;;;;;;;;5137111;27;20079;-74
2022/11/10 07:24:19;;;;;;;5.10;1.23;;;;;;;;;;5112118;27;20402;-75
2022/11/10 07:26:45;;;;;;;2.38;1.10;;;;;;;;;;5135569;27;20027;-75
2022/11/10 07:29:11;;;;;;;3.70;1.20;;;;;;;;;;5136332;27;20043;-75
2022/11/10 07:31:37;;;;;;;4.32;1.30;;;;;;;;;;5136476;27;20038;-74
2022/11/10 07:34:03;;;;;;;4.75;1.17;;;;;;;;;;5131708;27;20478;-73
2022/11/10 07:36:29;;;;;;;2.85;1.10;;;;;;;;;;5127487;27;20051;-74
2022/11/10 07:38:56;;;;;;;7.85;1.52;;;;;;;;;;5137648;27;20070;-73
2022/11/10 07:41:22;;;;;;;3.95;1.00;;;;;;;;;;5136190;27;20049;-73
2022/11/10 07:43:48;;;;;;;2.88;1.10;;;;;;;;;;5136899;27;20043;-75
2022/11/10 07:46:14;;;;;;;4.93;1.05;;;;;;;;;;5135236;27;20050;-73
2022/11/10 07:48:40;;;;;;;4.70;1.08;;;;;;;;;;5117112;28;20440;-73
2022/11/10 07:51:06;;;;;;;3.92;1.10;;;;;;;;;;5129959;27;20035;-73
2022/11/10 07:53:32;;;;;;;2.65;1.08;;;;;;;;;;5126337;27;20493;-73
2022/11/10 07:55:58;;;;;;;3.60;1.00;;;;;;;;;;5135660;27;20148;-73
2022/11/10 07:58:24;;;;;;;2.05;0.90;;;;;;;;;;5132645;27;20085;-73
2022/11/10 08:00:51;;;;;;;3.35;1.25;;;;;;;;;;5117094;28;20032;-73
2022/11/10 08:03:18;;;;;;;2.50;1.02;;;;;;;;;;5133545;27;20039;-73
2022/11/10 08:05:44;;;;;;;3.58;1.23;;;;;;;;;;5124959;27;20035;-73
2022/11/10 08:08:11;;;;;;;3.92;1.20;;;;;;;;;;5131503;27;20062;-73
2022/11/10 08:10:37;;;;;;;8.50;1.30;;;;;;;;;;5135712;27;20119;-73
2022/11/10 08:13:05;;;;;;;3.25;1.00;;;;;;;;;;5137165;27;20490;-73
2022/11/10 08:15:31;;;;;;;3.92;1.23;;;;;;;;;;5135801;27;20035;-73
2022/11/10 08:18:00;;;;;;;3.45;1.33;;;;;;;;;;5116984;27;20067;-73
2022/11/10 08:20:27;;;;;;;4.18;1.10;;;;;;;;;;5116640;28;20218;-73
2022/11/10 08:23:11;;;;;;;1.77;0.95;;;;;;;;;;5128911;27;20130;-74
2022/11/10 08:25:37;;;;;;;3.83;1.30;;;;;;;;;;5136601;27;20042;-74
2022/11/10 08:28:08;;;;;;;5.55;1.48;;;;;;;;;;5136222;27;20043;-74
2022/11/10 08:30:35;;;;;;;4.78;1.40;;;;;;;;;;5136013;27;20046;-74
2022/11/10 08:33:03;;;;;;;1.98;1.10;;;;;;;;;;5136147;27;20035;-74
2022/11/10 08:35:29;;;;;;;6.00;1.25;;;;;;;;;;5135234;27;20076;-74
2022/11/10 08:37:56;;;;;;;1.95;0.98;;;;;;;;;;5135665;27;20121;-74
2022/11/10 08:40:23;;;;;;;1.42;0.98;;;;;;;;;;5135962;27;20524;-74
2022/11/10 08:42:57;;;;;;;4.82;1.10;;;;;;;;;;5135468;27;20038;-73
2022/11/10 08:45:23;;;;;;;4.35;1.52;;;;;;;;;;5135837;27;20059;-74
2022/11/10 08:47:56;;;;;;;10.07;1.45;;;;;;;;;;5135770;27;20039;-73
2022/11/10 08:50:22;;;;;;;4.32;0.80;;;;;;;;;;5126787;27;20034;-73
2022/11/10 08:52:48;;;;;;;2.58;1.17;;;;;;;;;;5136421;27;20039;-74
2022/11/10 08:55:14;;;;;;;4.45;1.58;;;;;;;;;;5135226;27;20051;-74
2022/11/10 08:57:41;;;;;;;4.50;1.00;;;;;;;;;;5133851;27;20045;-74
2022/11/10 09:00:07;;;;;;;2.63;0.95;;;;;;;;;;5135249;27;20497;-73
2022/11/10 09:02:33;;;;;;;4.10;1.20;;;;;;;;;;5133860;27;20600;-74
2022/11/10 09:04:59;;;;;;;4.30;1.52;;;;;;;;;;5135038;27;20047;-74
2022/11/10 09:07:26;;;;;;;7.70;1.40;;;;;;;;;;5122391;27;20063;-74
2022/11/10 09:09:52;;;;;;;4.78;1.30;;;;;;;;;;5121700;27;20138;-74
2022/11/10 09:12:18;;;;;;;6.15;1.27;;;;;;;;;;5134653;27;20051;-74
2022/11/10 09:14:44;;;;;;;16.08;1.80;;;;;;;;;;5135739;27;20047;-74
2022/11/10 09:17:10;;;;;;;9.73;1.23;;;;;;;;;;5135480;27;20477;-74
2022/11/10 09:19:36;;;;;;;4.78;0.93;;;;;;;;;;5134420;27;20043;-74
2022/11/10 09:22:02;;;;;;;6.57;1.70;;;;;;;;;;5135567;27;20501;-74
2022/11/10 09:24:28;;;;;;;3.53;1.42;;;;;;;;;;5125714;27;20035;-73
2022/11/10 09:26:54;;;;;;;5.82;1.10;;;;;;;;;;5116524;28;20039;-73
2022/11/10 09:29:21;;;;;;;3.25;1.00;;;;;;;;;;5133667;27;20488;-73
2022/11/10 09:31:48;;;;;;;6.28;1.35;;;;;;;;;;5114148;28;20042;-73
2022/11/10 09:34:14;;;;;;;2.97;1.05;;;;;;;;;;5120970;28;20055;-73
2022/11/10 09:36:40;;;;;;;2.60;1.00;;;;;;;;;;5135092;28;20066;-73
2022/11/10 09:39:07;;;;;;;2.83;0.90;;;;;;;;;;5136038;28;20043;-73
2022/11/10 09:41:38;;;;;;;4.40;0.80;;;;;;;;;;5134110;28;20079;-73
2022/11/10 09:44:24;;;;;;;4.88;1.05;;;;;;;;;;5136250;28;20050;-73
2022/11/10 09:46:54;;;;;;;4.63;1.20;;;;;;;;;;5132462;28;20035;-73
2022/11/10 09:49:35;;;;;;;4.72;1.20;;;;;;;;;;5133786;28;20091;-73
2022/11/10 09:52:01;;;;;;;3.35;1.45;;;;;;;;;;5135866;28;20546;-74
2022/11/10 09:54:34;;;;;;;3.58;1.10;;;;;;;;;;5134974;28;20069;-74
2022/11/10 09:57:01;;;;;;;3.70;1.30;;;;;;;;;;5135439;28;20039;-74
2022/11/10 09:59:28;;;;;;;2.45;1.48;;;;;;;;;;5134306;28;20046;-74
2022/11/10 10:01:54;;;;;;;2.60;1.08;;;;;;;;;;5114743;28;20039;-74
2022/11/10 10:04:32;;;;;;;2.28;1.35;;;;;;;;;;5132813;28;20149;-74
2022/11/10 10:07:02;;;;;;;2.42;1.20;;;;;;;;;;5134493;28;20039;-74
2022/11/10 10:09:39;;;;;;;2.42;0.85;;;;;;;;;;5134809;28;20067;-74
2022/11/10 10:12:19;;;;;;;3.05;0.98;;;;;;;;;;5132401;28;20035;-73
2022/11/10 10:14:45;;;;;;;2.15;0.77;;;;;;;;;;5134284;28;20058;-74
2022/11/10 10:17:17;;;;;;;3.17;1.10;;;;;;;;;;5136150;27;20039;-73
2022/11/10 10:19:46;;;;;;;2.00;0.70;;;;;;;;;;5137877;27;20072;-74
2022/11/10 10:22:12;;;;;;;3.03;0.80;;;;;;;;;;5138004;27;20035;-74
2022/11/10 10:24:38;;;;;;;1.23;0.90;;;;;;;;;;5139623;27;20043;-74
2022/11/10 10:27:06;;;;;;;2.95;0.55;;;;;;;;;;5139404;27;20054;-74
2022/11/10 10:29:37;;;;;;;1.75;0.75;;;;;;;;;;5139929;27;20043;-74
2022/11/10 10:32:03;;;;;;;2.60;0.60;;;;;;;;;;5139317;27;20116;-75
2022/11/10 10:34:33;;;;;;;2.50;0.63;;;;;;;;;;5139036;27;20050;-74
2022/11/10 10:36:59;;;;;;;2.28;1.15;;;;;;;;;;5139068;27;20072;-74
2022/11/10 10:39:29;;;;;;;3.05;0.90;;;;;;;;;;5139626;27;20091;-74
2022/11/10 10:41:55;;;;;;;3.23;1.40;;;;;;;;;;5139899;27;20103;-74
2022/11/10 10:44:22;;;;;;;3.42;0.88;;;;;;;;;;5139024;27;20114;-75
2022/11/10 10:46:55;;;;;;;7.15;1.23;;;;;;;;;;5138649;27;20042;-74
2022/11/10 10:49:23;;;;;;;4.30;1.08;;;;;;;;;;5138955;27;20050;-74
2022/11/10 10:51:50;;;;;;;4.90;1.70;;;;;;;;;;5138885;27;20035;-75
2022/11/10 10:54:26;;;;;;;5.68;1.67;;;;;;;;;;5138322;27;20397;-74
2022/11/10 10:57:02;;;;;;;4.28;1.08;;;;;;;;;;5139087;27;20034;-74
2022/11/10 10:59:28;;;;;;;3.28;1.23;;;;;;;;;;5139001;27;20057;-75
2022/11/10 11:01:55;;;;;;;1.65;0.88;;;;;;;;;;5138412;27;20113;-74
2022/11/10 11:04:32;;;;;;;3.80;1.70;;;;;;;;;;5138862;27;20473;-75
2022/11/10 11:07:00;;;;;;;7.60;1.58;;;;;;;;;;5139121;27;20058;-74
2022/11/10 11:09:28;;;;;;;5.68;1.95;;;;;;;;;;5138393;27;20104;-74
2022/11/10 11:12:01;;;;;;;4.38;2.00;;;;;;;;;;5138769;27;20038;-75
2022/11/10 11:14:29;;;;;;;6.55;1.95;;;;;;;;;;5138929;27;20031;-75
2022/11/10 11:16:55;;;;;;;4.95;2.80;;;;;;;;;;5138368;27;20065;-74
2022/11/10 11:19:31;;;;;;;9.68;4.40;;;;;;;;;;5138635;27;20039;-75
2022/11/10 11:21:57;;;;;;;6.53;3.47;;;;;;;;;;5138621;27;20477;-75
2022/11/10 11:24:37;;;;;;;6.05;2.92;;;;;;;;;;5137949;27;20070;-75
2022/11/10 11:27:05;;;;;;;8.73;3.03;;;;;;;;;;5137577;27;20039;-75
2022/11/10 11:29:50;;;;;;;5.07;1.92;;;;;;;;;;5136899;27;20042;-75
2022/11/10 11:32:51;;;;;;;4.55;1.98;;;;;;;;;;5116739;27;20035;-74
2022/11/10 11:35:17;;;;;;;6.25;2.00;;;;;;;;;;5031040;28;20049;-75
2022/11/10 11:37:55;;;;;;;5.47;2.42;;;;;;;;;;5114987;27;20047;-75
2022/11/10 11:40:32;;;;;;;16.33;6.63;;;;;;;;;;5134002;27;20047;-75
2022/11/10 11:43:01;;;;;;;17.45;7.75;;;;;;;;;;5135155;27;20050;-75
2022/11/10 11:45:41;;;;;;;13.40;6.10;;;;;;;;;;5136138;27;20460;-76
2022/11/10 11:48:26;;;;;;;10.55;5.65;;;;;;;;;;5129804;27;20050;-76
2022/11/10 11:51:12;;;;;;;7.85;3.83;;;;;;;;;;5137526;27;20039;-76
2022/11/10 11:53:48;;;;;;;7.97;3.85;;;;;;;;;;5119276;27;20100;-75
2022/11/10 11:56:23;;;;;;;7.78;3.50;;;;;;;;;;5115083;27;20135;-75
2022/11/10 11:59:03;;;;;;;3.45;1.75;;;;;;;;;;5116407;28;20047;-74
2022/11/10 12:01:47;;;;;;;2.80;1.40;;;;;;;;;;5116850;27;20040;-74
2022/11/10 12:04:14;;;;;;;4.10;1.75;;;;;;;;;;5135175;27;20380;-74
2022/11/10 12:06:52;;;;;;;5.40;1.30;;;;;;;;;;5136528;27;20501;-74
2022/11/10 12:09:30;;;;;;;3.78;2.20;;;;;;;;;;5135867;27;20042;-75
2022/11/10 12:12:15;;;;;;;4.28;2.40;;;;;;;;;;5125396;27;20053;-74
2022/11/10 12:14:59;;;;;;;5.38;2.20;;;;;;;;;;5135712;27;20051;-75
2022/11/10 12:17:36;;;;;;;2.83;2.15;;;;;;;;;;5135784;27;20039;-76
2022/11/10 12:20:02;;;;;;;5.60;2.13;;;;;;;;;;5135735;27;20046;-75
2022/11/10 12:22:40;;;;;;;5.47;2.97;;;;;;;;;;5136158;27;20092;-75
2022/11/10 12:25:25;;;;;;;4.97;2.13;;;;;;;;;;5135341;27;20046;-75
2022/11/10 12:27:59;;;;;;;6.32;2.00;;;;;;;;;;5118027;27;20035;-77
2022/11/10 12:30:25;;;;;;;4.00;1.75;;;;;;;;;;5134933;27;20111;-76
2022/11/10 12:32:54;;;;;;;6.80;2.35;;;;;;;;;;5134907;27;20035;-76
2022/11/10 12:35:22;;;;;;;2.92;1.80;;;;;;;;;;5115496;28;20055;-76
2022/11/10 12:37:54;;;;;;;3.53;1.90;;;;;;;;;;5116176;28;20043;-75
2022/11/10 12:40:21;;;;;;;6.60;2.70;;;;;;;;;;5115232;28;20062;-75
2022/11/10 12:42:54;;;;;;;5.40;2.55;;;;;;;;;;5115566;28;20039;-75
2022/11/10 12:45:21;;;;;;;5.18;2.40;;;;;;;;;;5115970;28;20052;-75
2022/11/10 12:47:48;;;;;;;7.93;2.35;;;;;;;;;;5116236;28;20031;-75
2022/11/10 12:50:32;;;;;;;7.20;2.92;;;;;;;;;;5113423;28;20114;-75
2022/11/10 12:53:11;;;;;;;4.30;2.58;;;;;;;;;;5113601;28;20547;-75
2022/11/10 12:55:50;;;;;;;7.03;2.88;;;;;;;;;;5114189;28;20050;-75
2022/11/10 12:58:18;;;;;;;4.85;2.35;;;;;;;;;;5115671;28;20043;-75
2022/11/10 13:01:04;;;;;;;5.20;2.20;;;;;;;;;;5114611;28;20036;-75
2022/11/10 13:03:35;;;;;;;6.03;2.17;;;;;;;;;;5115176;28;20036;-75
2022/11/10 13:06:02;;;;;;;2.78;1.95;;;;;;;;;;5115503;28;20101;-75
2022/11/10 13:08:31;;;;;;;7.22;2.08;;;;;;;;;;5115368;28;20474;-75
2022/11/10 13:10:57;;;;;;;6.88;2.17;;;;;;;;;;5115138;28;20035;-75
2022/11/10 13:13:24;;;;;;;4.97;1.90;;;;;;;;;;5113964;28;20465;-75
2022/11/10 13:15:57;;;;;;;3.90;1.90;;;;;;;;;;5113780;28;20092;-75
2022/11/10 13:18:32;;;;;;;5.63;1.90;;;;;;;;;;5114893;28;20093;-75
2022/11/10 13:20:59;;;;;;;6.40;2.08;;;;;;;;;;5115253;28;20134;-75
2022/11/10 13:23:28;;;;;;;4.90;1.98;;;;;;;;;;5115003;28;20098;-75
2022/11/10 13:25:54;;;;;;;4.90;2.00;;;;;;;;;;5114599;28;20443;-75
2022/11/10 13:28:38;;;;;;;4.30;1.65;;;;;;;;;;5115036;28;20056;-75
2022/11/10 13:31:28;;;;;;;5.60;2.00;;;;;;;;;;5114859;28;20042;-75
2022/11/10 13:34:12;;;;;;;5.35;2.28;;;;;;;;;;5103891;28;20051;-75
2022/11/10 13:36:40;;;;;;;7.45;1.73;;;;;;;;;;5115241;28;20062;-75
2022/11/10 13:39:16;;;;;;;5.82;1.98;;;;;;;;;;5115544;28;20039;-75
2022/11/10 13:41:46;;;;;;;2.63;1.98;;;;;;;;;;5115007;28;20084;-75
2022/11/10 13:44:38;;;;;;;8.25;2.60;;;;;;;;;;5115246;28;20035;-75
2022/11/10 13:47:07;;;;;;;5.82;2.03;;;;;;;;;;5111350;28;20054;-75
2022/11/10 13:49:52;;;;;;;5.60;2.25;;;;;;;;;;5114534;28;20032;-75
2022/11/10 13:52:19;;;;;;;4.80;1.95;;;;;;;;;;5118543;28;20115;-75
2022/11/10 13:54:55;;;;;;;6.10;2.80;;;;;;;;;;5119519;28;20043;-75
2022/11/10 13:57:21;;;;;;;5.22;2.55;;;;;;;;;;5119693;28;20031;-75
2022/11/10 13:59:59;;;;;;;5.00;2.92;;;;;;;;;;5118698;28;20035;-75
2022/11/10 14:02:35;;;;;;;7.07;2.70;;;;;;;;;;5118654;28;20035;-75
2022/11/10 14:05:02;;;;;;;7.53;3.38;;;;;;;;;;5119119;28;20043;-75
2022/11/10 14:07:36;;;;;;;7.93;3.15;;;;;;;;;;5119717;28;20188;-75
2022/11/10 14:10:10;;;;;;;10.25;3.70;;;;;;;;;;5119044;28;20479;-75
2022/11/10 14:12:45;;;;;;;6.47;3.20;;;;;;;;;;5118830;28;20567;-75
2022/11/10 14:15:17;;;;;;;7.00;3.58;;;;;;;;;;5118903;28;20134;-75
2022/11/10 14:17:47;;;;;;;10.07;3.80;;;;;;;;;;5119521;28;20035;-75
2022/11/10 14:20:24;;;;;;;4.38;3.10;;;;;;;;;;5118838;28;20097;-75
2022/11/10 14:22:52;;;;;;;9.32;3.80;;;;;;;;;;5118783;28;20031;-75
2022/11/10 14:25:26;;;;;;;8.68;3.70;;;;;;;;;;5118584;28;20085;-75
2022/11/10 14:27:52;;;;;;;11.93;2.83;;;;;;;;;;5118972;28;20036;-75
2022/11/10 14:30:20;;;;;;;5.32;2.92;;;;;;;;;;5118668;28;20120;-75
2022/11/10 14:32:53;;;;;;;8.20;3.63;;;;;;;;;;5118553;28;20027;-75
2022/11/10 14:35:24;;;;;;;6.95;3.13;;;;;;;;;;5118302;28;20058;-75
2022/11/10 14:37:50;;;;;;;6.18;3.38;;;;;;;;;;5119256;28;20058;-75
2022/11/10 14:40:17;;;;;;;12.90;4.47;;;;;;;;;;5118552;28;20055;-75
2022/11/10 14:42:44;;;;;;;10.68;3.92;;;;;;;;;;5118216;28;20035;-75
2022/11/10 14:45:10;;;;;;;6.30;2.80;;;;;;;;;;5118578;28;20047;-75
2022/11/10 14:47:36;;;;;;;7.47;2.90;;;;;;;;;;5118098;28;20438;-75
2022/11/10 14:50:07;;;;;;;5.32;3.08;;;;;;;;;;5117776;28;20064;-75
2022/11/10 14:52:37;;;;;;;6.30;3.10;;;;;;;;;;5118710;28;20043;-75
2022/11/10 14:55:06;;;;;;;9.13;3.50;;;;;;;;;;5118117;28;20072;-75
2022/11/10 14:57:33;;;;;;;6.63;2.80;;;;;;;;;;5118201;28;20042;-75
2022/11/10 14:59:59;;;;;;;8.43;2.97;;;;;;;;;;5118330;28;20062;-75
2022/11/10 15:02:25;;;;;;;8.32;2.33;;;;;;;;;;5117146;27;20032;-75
2022/11/10 15:04:52;;;;;;;8.23;2.85;;;;;;;;;;5117938;28;20539;-75